createdAt,value
2022-12-14T00:00:40.840Z,22.03
2022-12-14T00:04:43.796Z,22.00
2022-12-14T00:08:47.543Z,22.77
2022-12-14T00:12:53.602Z,23.70
2022-12-14T00:16:56.751Z,20.57
2022-12-14T00:21:04.595Z,23.43
2022-12-14T00:25:08.073Z,23.33
2022-12-14T00:29:13.572Z,22.80
2022-12-14T00:33:16.465Z,20.87
2022-12-14T00:37:20.337Z,22.67
2022-12-14T00:41:23.418Z,22.33
2022-12-14T00:45:28.323Z,24.17
2022-12-14T00:49:31.216Z,23.23
2022-12-14T00:53:34.208Z,23.83
2022-12-14T00:57:37.198Z,21.40
2022-12-14T01:01:42.551Z,23.57
2022-12-14T01:05:49.138Z,22.90
2022-12-14T01:09:52.928Z,20.90
2022-12-14T01:13:56.567Z,21.17
2022-12-14T01:18:00.874Z,20.60
2022-12-14T01:22:04.078Z,19.87
2022-12-14T01:26:07.082Z,21.47
2022-12-14T01:30:10.677Z,20.17
2022-12-14T01:34:15.048Z,19.87
2022-12-14T01:38:17.834Z,19.87
2022-12-14T01:42:20.930Z,19.17
2022-12-14T01:46:29.838Z,19.23
2022-12-14T01:50:38.841Z,20.90
2022-12-14T01:54:49.132Z,18.67
2022-12-14T01:58:52.206Z,20.97
2022-12-14T02:03:00.210Z,19.93
2022-12-14T02:07:05.538Z,19.20
2022-12-14T02:11:08.912Z,18.63
2022-12-14T02:15:13.823Z,17.20
2022-12-14T02:19:16.690Z,18.43
2022-12-14T02:24:17.635Z,16.43
2022-12-14T02:28:56.077Z,16.30
2022-12-14T02:33:17.236Z,16.87
2022-12-14T02:37:26.512Z,16.43
2022-12-14T02:41:38.229Z,16.67
2022-12-14T02:45:45.954Z,16.83
2022-12-14T02:50:01.319Z,15.90
2022-12-14T02:54:13.175Z,16.83
2022-12-14T02:58:22.163Z,15.60
2022-12-14T03:02:26.564Z,16.20
2022-12-14T03:06:31.619Z,15.43
2022-12-14T03:10:41.310Z,15.20
2022-12-14T03:14:50.432Z,15.33
2022-12-14T03:19:01.558Z,16.60
2022-12-14T03:23:10.118Z,14.67
2022-12-14T03:27:18.336Z,15.43
2022-12-14T03:31:26.519Z,14.57
2022-12-14T03:35:34.428Z,15.27
2022-12-14T03:39:41.445Z,14.73
2022-12-14T03:44:01.010Z,14.57
2022-12-14T03:48:16.486Z,15.37
2022-12-14T03:52:27.010Z,15.47
2022-12-14T03:56:39.421Z,13.80
2022-12-14T04:00:51.238Z,13.87
2022-12-14T04:05:00.681Z,13.63
2022-12-14T04:09:15.143Z,12.97
2022-12-14T04:13:45.584Z,13.17
2022-12-14T04:18:11.456Z,13.73
2022-12-14T04:22:18.821Z,13.23
2022-12-14T04:26:27.285Z,14.13
2022-12-14T04:30:35.875Z,14.63
2022-12-14T04:34:42.488Z,12.20
2022-12-14T04:38:50.023Z,13.10
2022-12-14T04:42:56.812Z,13.33
2022-12-14T04:47:03.334Z,13.20
2022-12-14T04:51:11.949Z,13.10
2022-12-14T04:55:23.200Z,12.07
2022-12-14T04:59:26.610Z,12.37
2022-12-14T05:03:35.783Z,12.83
2022-12-14T05:07:48.731Z,12.50
2022-12-14T05:11:56.535Z,12.50
2022-12-14T05:16:00.424Z,12.03
2022-12-14T05:20:05.869Z,16.27
2022-12-14T05:24:09.336Z,19.93
2022-12-14T05:28:13.239Z,19.30
2022-12-14T05:32:16.379Z,16.53
2022-12-14T05:36:20.715Z,15.83
2022-12-14T05:40:23.571Z,14.57
2022-12-14T05:44:26.599Z,14.10
2022-12-14T05:48:30.569Z,13.33
2022-12-14T05:52:35.526Z,12.40
2022-12-14T05:56:38.306Z,15.07
2022-12-14T06:00:42.008Z,12.97
2022-12-14T06:04:44.950Z,15.07
2022-12-14T06:08:49.459Z,14.97
2022-12-14T06:12:53.672Z,14.57
2022-12-14T06:16:56.636Z,14.87
2022-12-14T06:20:59.663Z,14.33
2022-12-14T06:25:04.632Z,15.43
2022-12-14T06:29:08.351Z,14.13
2022-12-14T06:33:11.481Z,14.17
2022-12-14T06:37:14.694Z,13.87
2022-12-14T06:41:19.651Z,14.40
2022-12-14T06:45:22.988Z,13.33
2022-12-14T06:49:26.141Z,15.30
2022-12-14T06:53:29.585Z,20.70
2022-12-14T06:57:34.467Z,18.00
2022-12-14T07:01:38.823Z,16.40
2022-12-14T07:05:45.784Z,15.00
2022-12-14T07:09:51.968Z,15.00
2022-12-14T07:13:56.762Z,15.17
2022-12-14T07:17:59.690Z,13.60
2022-12-14T07:22:05.871Z,13.80
2022-12-14T07:26:10.619Z,13.13
2022-12-14T07:30:15.359Z,12.50
2022-12-14T07:34:19.249Z,11.43
2022-12-14T07:38:21.943Z,12.90
2022-12-14T07:42:25.100Z,12.30
2022-12-14T07:46:32.089Z,13.93
2022-12-14T07:50:35.320Z,12.80
2022-12-14T07:54:39.034Z,15.10
2022-12-14T07:58:42.053Z,18.07
2022-12-14T08:02:46.423Z,16.90
2022-12-14T08:06:51.341Z,16.00
2022-12-14T08:10:55.250Z,14.17
2022-12-14T08:14:58.201Z,14.37
2022-12-14T08:19:02.963Z,15.67
2022-12-14T08:23:05.717Z,16.97
2022-12-14T08:27:09.696Z,15.50
2022-12-14T08:31:14.754Z,17.57
2022-12-14T08:35:19.298Z,17.07
2022-12-14T08:39:22.113Z,17.63
2022-12-14T08:43:25.276Z,17.10
2022-12-14T08:47:28.311Z,18.30
2022-12-14T08:51:33.156Z,19.73
2022-12-14T08:55:38.964Z,22.23
2022-12-14T09:04:06.146Z,19.33
2022-12-14T09:08:10.566Z,20.90
2022-12-14T09:12:13.334Z,20.20
2022-12-14T09:16:19.321Z,19.73
2022-12-14T09:20:23.026Z,21.47
2022-12-14T09:24:28.359Z,21.13
2022-12-14T09:28:33.190Z,20.10
2022-12-14T09:32:35.991Z,20.20
2022-12-14T09:36:39.384Z,19.97
2022-12-14T09:40:49.289Z,20.80
2022-12-14T09:45:01.889Z,21.17
2022-12-14T09:49:06.127Z,22.30
2022-12-14T09:53:14.247Z,21.40
2022-12-14T09:57:26.498Z,21.00
2022-12-14T10:02:29.127Z,19.17
2022-12-14T10:06:35.693Z,18.20
2022-12-14T10:10:45.565Z,20.47
2022-12-14T10:15:01.959Z,21.13
2022-12-14T10:19:23.473Z,18.83
2022-12-14T10:23:28.111Z,18.93
2022-12-14T10:28:01.226Z,18.20
2022-12-14T10:32:07.600Z,18.40
2022-12-14T10:36:21.035Z,20.73
2022-12-14T10:40:33.619Z,20.23
2022-12-14T10:44:50.278Z,19.87
2022-12-14T10:49:10.663Z,21.47
2022-12-14T10:53:18.621Z,18.87
2022-12-14T10:57:23.168Z,19.37
2022-12-14T11:01:28.435Z,19.80
2022-12-14T11:05:39.654Z,21.40
2022-12-14T11:09:43.588Z,19.73
2022-12-14T11:13:50.864Z,20.53
2022-12-14T11:18:03.287Z,19.53
2022-12-14T11:22:15.955Z,17.50
2022-12-14T11:26:27.682Z,18.00
2022-12-14T11:30:30.934Z,18.63
2022-12-14T11:34:38.167Z,18.87
2022-12-14T11:38:42.795Z,17.87
2022-12-14T11:42:50.001Z,18.83
2022-12-14T11:46:56.428Z,18.97
2022-12-14T11:51:11.024Z,17.53
2022-12-14T11:55:24.678Z,16.43
2022-12-14T11:59:39.608Z,16.23
2022-12-14T12:03:46.073Z,15.97
2022-12-14T12:07:55.359Z,16.47
2022-12-14T12:11:59.943Z,15.83
2022-12-14T12:16:08.103Z,16.17
2022-12-14T12:20:27.038Z,15.50
2022-12-14T12:25:01.091Z,14.87
2022-12-14T12:29:14.604Z,15.07
2022-12-14T12:33:36.015Z,16.67
2022-12-14T12:37:44.970Z,16.13
2022-12-14T12:41:58.179Z,16.20
2022-12-14T12:46:13.489Z,15.83
2022-12-14T12:50:22.526Z,16.17
2022-12-14T12:54:30.665Z,15.43
2022-12-14T12:58:35.152Z,16.13
2022-12-14T13:02:47.378Z,16.70
2022-12-14T13:06:58.260Z,15.40
2022-12-14T13:11:37.859Z,17.10
2022-12-14T13:15:39.439Z,16.17
2022-12-14T13:20:00.616Z,15.10
2022-12-14T13:24:19.809Z,15.10
2022-12-14T13:28:49.697Z,16.03
2022-12-14T13:33:28.740Z,16.77
2022-12-14T13:37:50.117Z,16.13
2022-12-14T13:42:02.606Z,17.30
2022-12-14T13:46:12.697Z,18.00
2022-12-14T13:50:35.805Z,15.03
2022-12-14T13:54:41.112Z,14.90
2022-12-14T13:58:47.487Z,15.27
2022-12-14T14:02:53.661Z,13.63
2022-12-14T14:07:18.315Z,13.97
2022-12-14T14:11:56.004Z,14.43
2022-12-14T14:16:28.471Z,14.73
2022-12-14T14:20:56.976Z,14.10
2022-12-14T14:25:09.532Z,15.10
2022-12-14T14:29:32.798Z,15.63
2022-12-14T14:33:48.956Z,13.43
2022-12-14T14:37:59.166Z,19.77
2022-12-14T14:42:06.159Z,17.77
2022-12-14T14:46:14.480Z,16.97
2022-12-14T14:50:24.663Z,15.00
2022-12-14T14:55:10.725Z,16.20
2022-12-14T14:59:38.494Z,17.00
2022-12-14T15:03:55.204Z,15.67
2022-12-14T15:08:03.050Z,14.80
2022-12-14T15:12:34.062Z,14.10
2022-12-14T15:16:49.703Z,14.73
2022-12-14T15:21:01.691Z,15.83
2022-12-14T15:25:11.259Z,14.40
2022-12-14T15:29:28.784Z,15.50
2022-12-14T15:33:35.358Z,15.30
2022-12-14T15:37:46.207Z,17.20
2022-12-14T15:41:49.278Z,16.73
2022-12-14T15:46:03.066Z,20.07
2022-12-14T15:50:19.301Z,25.33
2022-12-14T15:54:27.120Z,25.07
2022-12-14T15:58:34.494Z,23.93
2022-12-14T16:02:56.642Z,22.63
2022-12-14T16:07:18.206Z,17.73
2022-12-14T16:11:37.429Z,17.17
2022-12-14T16:15:42.843Z,14.87
2022-12-14T16:19:59.536Z,19.63
2022-12-14T16:24:22.088Z,21.57
2022-12-14T16:28:29.755Z,20.73
2022-12-14T16:32:33.274Z,22.27
2022-12-14T16:36:37.938Z,20.80
2022-12-14T16:40:43.578Z,18.83
2022-12-14T16:44:48.797Z,18.30
2022-12-14T16:49:21.065Z,18.63
2022-12-14T16:53:30.528Z,17.27
2022-12-14T16:57:35.892Z,17.00
2022-12-14T17:01:46.856Z,19.07
2022-12-14T17:05:56.418Z,19.90
2022-12-14T17:09:59.576Z,18.23
2022-12-14T17:14:02.461Z,15.47
2022-12-14T17:18:08.714Z,15.57
2022-12-14T17:22:19.171Z,28.27
2022-12-14T17:26:25.220Z,25.47
2022-12-14T17:30:28.866Z,23.20
2022-12-14T17:34:33.449Z,22.37
2022-12-14T17:38:36.431Z,21.47
2022-12-14T17:42:41.890Z,20.17
2022-12-14T17:46:56.864Z,20.97
2022-12-14T17:51:07.104Z,21.00
2022-12-14T17:55:18.226Z,20.77
2022-12-14T17:59:21.208Z,35.17
2022-12-14T18:03:24.867Z,22.77
2022-12-14T18:07:30.049Z,21.23
2022-12-14T18:11:33.272Z,21.37
2022-12-14T18:15:50.524Z,24.23
2022-12-14T18:19:59.267Z,23.20
2022-12-14T18:24:09.337Z,19.97
2022-12-14T18:28:14.440Z,22.93
2022-12-14T18:32:17.391Z,22.27
2022-12-14T18:36:31.762Z,22.93
2022-12-14T18:40:44.462Z,29.37
2022-12-14T18:44:56.396Z,38.10
2022-12-14T18:48:59.463Z,35.30
2022-12-14T18:53:02.800Z,31.00
2022-12-14T18:57:07.471Z,27.07
2022-12-14T19:01:15.990Z,20.97
2022-12-14T19:05:25.878Z,37.07
2022-12-14T19:09:29.562Z,35.23
2022-12-14T19:13:34.285Z,29.70
2022-12-14T19:17:37.054Z,40.30
2022-12-14T19:21:40.228Z,32.80
2022-12-14T19:25:44.371Z,40.63
2022-12-14T19:29:48.620Z,49.77
2022-12-14T19:33:51.508Z,47.87
2022-12-14T19:38:04.745Z,36.60
2022-12-14T19:42:07.980Z,31.83
2022-12-14T19:46:15.422Z,25.00
2022-12-14T19:50:18.645Z,22.83
2022-12-14T19:54:21.784Z,24.90
2022-12-14T19:58:25.315Z,24.40
2022-12-14T20:02:30.110Z,25.27
2022-12-14T20:06:34.590Z,25.63
2022-12-14T20:10:37.821Z,21.50
2022-12-14T20:14:42.720Z,24.30
2022-12-14T20:18:48.545Z,21.20
2022-12-14T20:22:52.004Z,20.67
2022-12-14T20:26:55.031Z,21.40
2022-12-14T20:31:00.555Z,26.20
2022-12-14T20:35:06.335Z,23.33
2022-12-14T20:39:09.917Z,23.20
2022-12-14T20:43:13.259Z,19.27
2022-12-14T20:47:16.543Z,17.63
2022-12-14T20:51:21.695Z,19.33
2022-12-14T20:55:25.493Z,21.87
2022-12-14T20:59:28.505Z,24.13
2022-12-14T21:03:31.830Z,23.10
2022-12-14T21:07:40.853Z,21.80
2022-12-14T21:12:10.107Z,25.70
2022-12-14T21:16:13.140Z,24.10
2022-12-14T21:20:16.182Z,25.30
2022-12-14T21:24:52.659Z,28.00
2022-12-14T21:28:45.421Z,35.50
2022-12-14T21:32:59.560Z,39.13
2022-12-14T21:37:02.427Z,34.03
2022-12-14T21:41:31.767Z,33.90
2022-12-14T21:45:34.864Z,28.43
2022-12-14T21:49:38.941Z,27.37
2022-12-14T21:53:58.388Z,25.03
2022-12-14T21:58:19.519Z,23.73
2022-12-14T22:02:24.805Z,23.27
2022-12-14T22:06:28.186Z,21.77
2022-12-14T22:10:31.261Z,20.87
2022-12-14T22:14:36.052Z,19.90
2022-12-14T22:18:39.483Z,18.37
2022-12-14T22:22:42.381Z,19.13
2022-12-14T22:26:45.781Z,19.07
2022-12-14T22:30:50.028Z,17.40
2022-12-14T22:34:52.819Z,19.60
2022-12-14T22:38:57.270Z,19.40
2022-12-14T22:43:00.467Z,19.67
2022-12-14T22:47:05.105Z,22.07
2022-12-14T22:51:10.260Z,20.90
2022-12-14T22:55:14.408Z,22.43
2022-12-14T22:59:20.994Z,22.23
2022-12-14T23:03:26.676Z,23.83
2022-12-14T23:07:29.993Z,21.57
2022-12-14T23:11:50.780Z,21.03
2022-12-14T23:16:12.120Z,20.80
2022-12-14T23:20:33.886Z,21.60
2022-12-14T23:24:54.368Z,21.80
2022-12-14T23:29:15.109Z,20.73
2022-12-14T23:33:35.507Z,20.43
2022-12-14T23:37:57.474Z,21.53
2022-12-14T23:42:17.868Z,22.33
2022-12-14T23:46:38.355Z,21.07
2022-12-14T23:50:58.660Z,21.57
2022-12-14T23:55:20.513Z,20.50
2022-12-14T23:59:40.927Z,20.07
